SLVR/VVI METAR and TAF weather

Enter ICAO airport designator
Station Type Date Time Source
SLVR METAR 2020/07/11 23:00 UTC NOAA

SLVR 112300Z 35011KT 9999 SCT013 BKN200 24/20 Q1010


Station Type Date Time Source
SLVR Decoded METAR 2020/07/11 23:00 UTC NOAA

Viru-Viru, Bolivia (SLVR) 17-38S 063-08W
Jul 11, 2020 - 07:00 PM EDT / 2020.07.11 2300 UTC
Wind: from the N (350 degrees) at 13 MPH (11 KT):0
Visibility: greater than 7 mile(s):0
Sky conditions: mostly cloudy
Temperature: 75 F (24 C)
Dew Point: 68 F (20 C)
Relative Humidity: 78%
Pressure (altimeter): 29.83 in. Hg (1010 hPa)
ob: SLVR 112300Z 35011KT 9999 SCT013 BKN200 24/20 Q1010
cycle: 23

Station Type Date Time Source
SLVR TAF 2020/07/11 18:27 UTC NOAA

TAF TAF SLVR 111615Z 1118/1218 35015G25KT 9999 BKN020 TX29/1120Z TN20/1211Z
BECMG 1123/1201 35015KT SCT015
TEMPO 1209/1212 BKN008
BECMG 1214/1216 35020G30KT

Example: see airport list